メインページ
METAR-TAF:

METAR-TAF

空港 :

ブリュッセル空港

ブリュッセル, ベルギー

緯度: 50-54N, 経度: 004-32E, 海抜: 55m

現時点の気象観測

当レポートは37分前の18:50(UTC)に作成
西の風 7kt、南西から西/北西の間で変化する
気温 20°C
湿度 64%
気圧 1015 hPa
視程10km以上
1,500メートル以下は雲なし、積乱雲なし

METAR: EBBR 181850Z 27007KT 230V290 CAVOK 20/13 Q1015 NOSIG

時間: 21:27 (19:27 UTC)

予報

当レポートは2時間17分前の17:10(UTC)に作成
予報は18日の 18時(UTC)から 19日の 24時(UTC)まで有効
西の風 8kt
視程10km以上
1,500メートル以下は雲なし、積乱雲なし
19日の 12時(UTC)から 19日の 17時(UTC)まで一時的に
南西の風 15kt、最大25ktの突風を伴う

TAF: EBBR 181710Z 1818/1924 26008KT CAVOK TEMPO 1912/1917 23015G25KT

4,000以上の空港の気象観測と天気予報(METAR報とTAF報)

利用可能な観測所は地図上に黄色い丸と赤い丸で示す。

丸の上にカーソルを重ねると観測所名を参照できる。

次にクリックすると気象観測と天気予報を参照できる。

マップの切り替え:黒色「×」印の緑ボタンをクリックして拡大、「-」印の緑ボタンをクリックして縮小、緑色の三角印をクリックして隣りの地図に切り替え


METAR-TAF: